sensor_id;sensor_type;location;lat;lon;timestamp;P1;durP1;ratioP1;P2;durP2;ratioP2
823;SDS011;373;49.342;8.146;2023-03-17T00:00:34;4.65;;;3.58;;
823;SDS011;373;49.342;8.146;2023-03-17T00:03:02;4.53;;;3.70;;
823;SDS011;373;49.342;8.146;2023-03-17T00:05:31;4.43;;;4.03;;
823;SDS011;373;49.342;8.146;2023-03-17T00:08:01;4.57;;;4.03;;
823;SDS011;373;49.342;8.146;2023-03-17T00:13:04;4.63;;;3.72;;
823;SDS011;373;49.342;8.146;2023-03-17T00:15:31;4.88;;;4.00;;
823;SDS011;373;49.342;8.146;2023-03-17T00:17:59;6.70;;;4.10;;
823;SDS011;373;49.342;8.146;2023-03-17T00:20:27;5.43;;;4.43;;
823;SDS011;373;49.342;8.146;2023-03-17T00:22:56;4.47;;;3.55;;
823;SDS011;373;49.342;8.146;2023-03-17T00:25:29;4.32;;;3.92;;
823;SDS011;373;49.342;8.146;2023-03-17T00:27:58;3.97;;;3.58;;
823;SDS011;373;49.342;8.146;2023-03-17T00:30:28;5.05;;;4.30;;
823;SDS011;373;49.342;8.146;2023-03-17T00:32:56;4.28;;;3.83;;
823;SDS011;373;49.342;8.146;2023-03-17T00:35:24;3.92;;;3.42;;
823;SDS011;373;49.342;8.146;2023-03-17T00:37:54;5.80;;;4.47;;
823;SDS011;373;49.342;8.146;2023-03-17T00:40:23;5.85;;;4.32;;
823;SDS011;373;49.342;8.146;2023-03-17T00:42:53;5.45;;;3.88;;
823;SDS011;373;49.342;8.146;2023-03-17T00:45:21;4.28;;;3.78;;
823;SDS011;373;49.342;8.146;2023-03-17T00:47:51;4.20;;;3.58;;
823;SDS011;373;49.342;8.146;2023-03-17T00:50:21;4.45;;;3.75;;
823;SDS011;373;49.342;8.146;2023-03-17T00:52:50;4.45;;;3.67;;
823;SDS011;373;49.342;8.146;2023-03-17T00:55:19;4.88;;;4.00;;
823;SDS011;373;49.342;8.146;2023-03-17T00:57:47;3.78;;;3.47;;
823;SDS011;373;49.342;8.146;2023-03-17T01:00:19;3.80;;;3.50;;
823;SDS011;373;49.342;8.146;2023-03-17T01:02:49;4.00;;;3.60;;
823;SDS011;373;49.342;8.146;2023-03-17T01:05:18;5.63;;;3.47;;
823;SDS011;373;49.342;8.146;2023-03-17T01:07:46;4.40;;;4.00;;
823;SDS011;373;49.342;8.146;2023-03-17T01:10:18;4.93;;;3.75;;
823;SDS011;373;49.342;8.146;2023-03-17T01:12:49;4.80;;;4.22;;
823;SDS011;373;49.342;8.146;2023-03-17T01:15:17;4.30;;;3.90;;
823;SDS011;373;49.342;8.146;2023-03-17T01:17:45;3.50;;;3.03;;
823;SDS011;373;49.342;8.146;2023-03-17T01:20:16;4.68;;;4.13;;
823;SDS011;373;49.342;8.146;2023-03-17T01:22:45;4.45;;;4.05;;
823;SDS011;373;49.342;8.146;2023-03-17T01:25:13;4.55;;;4.13;;
823;SDS011;373;49.342;8.146;2023-03-17T01:27:40;5.03;;;4.20;;
823;SDS011;373;49.342;8.146;2023-03-17T01:30:12;4.20;;;3.15;;
823;SDS011;373;49.342;8.146;2023-03-17T01:32:48;4.60;;;4.07;;
823;SDS011;373;49.342;8.146;2023-03-17T01:35:16;4.68;;;3.70;;
823;SDS011;373;49.342;8.146;2023-03-17T01:37:44;4.60;;;4.20;;
823;SDS011;373;49.342;8.146;2023-03-17T01:40:13;4.82;;;4.15;;
823;SDS011;373;49.342;8.146;2023-03-17T01:42:42;4.97;;;3.67;;
823;SDS011;373;49.342;8.146;2023-03-17T01:48:17;4.75;;;3.97;;
823;SDS011;373;49.342;8.146;2023-03-17T01:50:47;4.63;;;3.63;;
823;SDS011;373;49.342;8.146;2023-03-17T01:53:15;5.53;;;4.78;;
823;SDS011;373;49.342;8.146;2023-03-17T01:55:43;5.70;;;5.03;;
823;SDS011;373;49.342;8.146;2023-03-17T01:58:11;5.85;;;4.75;;
823;SDS011;373;49.342;8.146;2023-03-17T02:00:41;5.65;;;5.00;;
823;SDS011;373;49.342;8.146;2023-03-17T02:03:11;5.32;;;4.70;;
823;SDS011;373;49.342;8.146;2023-03-17T02:05:38;6.85;;;5.13;;
823;SDS011;373;49.342;8.146;2023-03-17T02:08:08;4.93;;;4.20;;
823;SDS011;373;49.342;8.146;2023-03-17T02:10:37;4.07;;;3.72;;
823;SDS011;373;49.342;8.146;2023-03-17T02:13:06;6.70;;;4.45;;
823;SDS011;373;49.342;8.146;2023-03-17T02:15:36;4.68;;;3.95;;
823;SDS011;373;49.342;8.146;2023-03-17T02:18:04;4.28;;;3.90;;
823;SDS011;373;49.342;8.146;2023-03-17T02:23:56;4.10;;;3.72;;
823;SDS011;373;49.342;8.146;2023-03-17T02:26:24;4.82;;;3.83;;
823;SDS011;373;49.342;8.146;2023-03-17T02:28:54;4.65;;;4.00;;
823;SDS011;373;49.342;8.146;2023-03-17T02:31:22;4.88;;;3.50;;
823;SDS011;373;49.342;8.146;2023-03-17T02:33:51;4.22;;;3.65;;
823;SDS011;373;49.342;8.146;2023-03-17T02:36:19;4.22;;;3.83;;
823;SDS011;373;49.342;8.146;2023-03-17T02:38:47;4.55;;;4.07;;
823;SDS011;373;49.342;8.146;2023-03-17T02:41:15;4.53;;;3.50;;
823;SDS011;373;49.342;8.146;2023-03-17T02:43:43;4.20;;;3.58;;
823;SDS011;373;49.342;8.146;2023-03-17T02:46:10;5.07;;;4.38;;
823;SDS011;373;49.342;8.146;2023-03-17T02:48:38;4.82;;;4.20;;
823;SDS011;373;49.342;8.146;2023-03-17T02:51:05;4.20;;;3.78;;
823;SDS011;373;49.342;8.146;2023-03-17T02:53:33;5.35;;;3.80;;
823;SDS011;373;49.342;8.146;2023-03-17T02:56:00;5.65;;;4.50;;
823;SDS011;373;49.342;8.146;2023-03-17T02:58:29;6.43;;;3.55;;
823;SDS011;373;49.342;8.146;2023-03-17T03:00:56;3.92;;;3.63;;
823;SDS011;373;49.342;8.146;2023-03-17T03:03:25;3.88;;;3.50;;
823;SDS011;373;49.342;8.146;2023-03-17T03:05:52;4.18;;;3.78;;
823;SDS011;373;49.342;8.146;2023-03-17T03:08:19;3.53;;;3.22;;
823;SDS011;373;49.342;8.146;2023-03-17T03:10:47;3.92;;;3.63;;
823;SDS011;373;49.342;8.146;2023-03-17T03:13:14;4.82;;;4.22;;
823;SDS011;373;49.342;8.146;2023-03-17T03:15:43;3.58;;;3.28;;
823;SDS011;373;49.342;8.146;2023-03-17T03:18:10;3.78;;;3.38;;
823;SDS011;373;49.342;8.146;2023-03-17T03:20:37;3.97;;;3.55;;
823;SDS011;373;49.342;8.146;2023-03-17T03:23:07;4.97;;;4.00;;
823;SDS011;373;49.342;8.146;2023-03-17T03:25:34;3.78;;;3.25;;
823;SDS011;373;49.342;8.146;2023-03-17T03:28:02;3.92;;;3.30;;
823;SDS011;373;49.342;8.146;2023-03-17T03:30:29;3.97;;;3.35;;
823;SDS011;373;49.342;8.146;2023-03-17T03:32:59;3.90;;;3.50;;
823;SDS011;373;49.342;8.146;2023-03-17T03:35:26;3.95;;;3.65;;
823;SDS011;373;49.342;8.146;2023-03-17T03:37:53;3.65;;;3.35;;
823;SDS011;373;49.342;8.146;2023-03-17T03:40:24;3.65;;;3.35;;
823;SDS011;373;49.342;8.146;2023-03-17T03:42:53;4.45;;;3.58;;
823;SDS011;373;49.342;8.146;2023-03-17T03:45:20;3.70;;;3.30;;
823;SDS011;373;49.342;8.146;2023-03-17T03:47:48;4.35;;;3.95;;
823;SDS011;373;49.342;8.146;2023-03-17T03:50:19;4.25;;;3.38;;
823;SDS011;373;49.342;8.146;2023-03-17T03:52:46;4.30;;;3.78;;
823;SDS011;373;49.342;8.146;2023-03-17T03:55:14;5.85;;;3.95;;
823;SDS011;373;49.342;8.146;2023-03-17T03:57:42;3.85;;;3.20;;
823;SDS011;373;49.342;8.146;2023-03-17T04:00:10;3.60;;;3.30;;
823;SDS011;373;49.342;8.146;2023-03-17T04:02:38;4.28;;;3.55;;
823;SDS011;373;49.342;8.146;2023-03-17T04:05:06;3.63;;;3.33;;
823;SDS011;373;49.342;8.146;2023-03-17T04:07:35;5.88;;;3.47;;
823;SDS011;373;49.342;8.146;2023-03-17T04:10:02;4.72;;;3.20;;
823;SDS011;373;49.342;8.146;2023-03-17T04:12:30;5.07;;;3.58;;
823;SDS011;373;49.342;8.146;2023-03-17T04:14:57;5.03;;;3.97;;
823;SDS011;373;49.342;8.146;2023-03-17T04:17:24;3.30;;;2.85;;
823;SDS011;373;49.342;8.146;2023-03-17T04:19:51;3.40;;;3.10;;
823;SDS011;373;49.342;8.146;2023-03-17T04:22:18;5.38;;;3.95;;
823;SDS011;373;49.342;8.146;2023-03-17T04:24:46;3.65;;;3.33;;
823;SDS011;373;49.342;8.146;2023-03-17T04:27:13;4.00;;;3.58;;
823;SDS011;373;49.342;8.146;2023-03-17T04:29:41;3.70;;;3.40;;
823;SDS011;373;49.342;8.146;2023-03-17T04:32:09;4.35;;;3.83;;
823;SDS011;373;49.342;8.146;2023-03-17T04:34:37;3.97;;;3.58;;
823;SDS011;373;49.342;8.146;2023-03-17T04:37:05;4.70;;;3.72;;
823;SDS011;373;49.342;8.146;2023-03-17T04:39:32;4.10;;;3.65;;
823;SDS011;373;49.342;8.146;2023-03-17T04:42:01;3.95;;;3.63;;
823;SDS011;373;49.342;8.146;2023-03-17T04:44:28;3.67;;;3.38;;
823;SDS011;373;49.342;8.146;2023-03-17T04:46:55;4.10;;;3.70;;
823;SDS011;373;49.342;8.146;2023-03-17T04:49:22;4.38;;;3.97;;
823;SDS011;373;49.342;8.146;2023-03-17T04:51:50;4.60;;;3.75;;
823;SDS011;373;49.342;8.146;2023-03-17T04:54:17;3.88;;;3.40;;
823;SDS011;373;49.342;8.146;2023-03-17T04:56:44;3.65;;;3.35;;
823;SDS011;373;49.342;8.146;2023-03-17T04:59:13;5.18;;;3.25;;
823;SDS011;373;49.342;8.146;2023-03-17T05:01:40;3.67;;;3.38;;
823;SDS011;373;49.342;8.146;2023-03-17T05:04:07;4.20;;;3.83;;
823;SDS011;373;49.342;8.146;2023-03-17T05:06:34;6.03;;;4.07;;
823;SDS011;373;49.342;8.146;2023-03-17T05:09:02;4.82;;;3.92;;
823;SDS011;373;49.342;8.146;2023-03-17T05:11:29;5.88;;;4.50;;
823;SDS011;373;49.342;8.146;2023-03-17T05:13:57;5.00;;;4.32;;
823;SDS011;373;49.342;8.146;2023-03-17T05:16:25;5.38;;;4.68;;
823;SDS011;373;49.342;8.146;2023-03-17T05:18:52;6.50;;;5.22;;
823;SDS011;373;49.342;8.146;2023-03-17T05:21:20;4.57;;;4.18;;
823;SDS011;373;49.342;8.146;2023-03-17T05:23:47;4.90;;;3.85;;
823;SDS011;373;49.342;8.146;2023-03-17T05:26:14;4.32;;;3.92;;
823;SDS011;373;49.342;8.146;2023-03-17T05:28:41;5.18;;;3.92;;
823;SDS011;373;49.342;8.146;2023-03-17T05:31:08;4.40;;;3.80;;
823;SDS011;373;49.342;8.146;2023-03-17T05:33:37;4.32;;;3.92;;
823;SDS011;373;49.342;8.146;2023-03-17T05:36:04;4.50;;;3.47;;
823;SDS011;373;49.342;8.146;2023-03-17T05:38:32;4.65;;;3.42;;
823;SDS011;373;49.342;8.146;2023-03-17T05:40:59;4.13;;;3.15;;
823;SDS011;373;49.342;8.146;2023-03-17T05:43:27;4.90;;;3.97;;
823;SDS011;373;49.342;8.146;2023-03-17T05:45:54;3.80;;;3.45;;
823;SDS011;373;49.342;8.146;2023-03-17T05:48:21;4.47;;;4.07;;
823;SDS011;373;49.342;8.146;2023-03-17T05:50:49;5.90;;;3.60;;
823;SDS011;373;49.342;8.146;2023-03-17T05:53:16;3.58;;;3.25;;
823;SDS011;373;49.342;8.146;2023-03-17T05:55:44;3.72;;;3.17;;
823;SDS011;373;49.342;8.146;2023-03-17T05:58:11;4.32;;;3.08;;
823;SDS011;373;49.342;8.146;2023-03-17T06:00:40;3.50;;;3.13;;
823;SDS011;373;49.342;8.146;2023-03-17T06:03:07;4.03;;;3.60;;
823;SDS011;373;49.342;8.146;2023-03-17T06:05:35;3.13;;;2.83;;
823;SDS011;373;49.342;8.146;2023-03-17T06:08:03;3.78;;;2.90;;
823;SDS011;373;49.342;8.146;2023-03-17T06:10:31;3.83;;;3.28;;
823;SDS011;373;49.342;8.146;2023-03-17T06:12:59;5.13;;;3.20;;
823;SDS011;373;49.342;8.146;2023-03-17T06:15:26;3.10;;;2.80;;
823;SDS011;373;49.342;8.146;2023-03-17T06:17:54;3.28;;;2.92;;
823;SDS011;373;49.342;8.146;2023-03-17T06:20:21;3.67;;;3.05;;
823;SDS011;373;49.342;8.146;2023-03-17T06:22:48;4.00;;;2.78;;
823;SDS011;373;49.342;8.146;2023-03-17T06:25:16;3.55;;;3.03;;
823;SDS011;373;49.342;8.146;2023-03-17T06:27:43;3.38;;;3.08;;
823;SDS011;373;49.342;8.146;2023-03-17T06:30:10;4.03;;;3.03;;
823;SDS011;373;49.342;8.146;2023-03-17T06:32:38;3.42;;;2.92;;
823;SDS011;373;49.342;8.146;2023-03-17T06:35:06;3.08;;;2.70;;
823;SDS011;373;49.342;8.146;2023-03-17T06:37:34;3.97;;;3.00;;
823;SDS011;373;49.342;8.146;2023-03-17T06:40:01;3.60;;;2.78;;
823;SDS011;373;49.342;8.146;2023-03-17T06:42:31;4.07;;;3.15;;
823;SDS011;373;49.342;8.146;2023-03-17T06:44:58;3.33;;;3.03;;
823;SDS011;373;49.342;8.146;2023-03-17T06:47:28;4.85;;;3.05;;
823;SDS011;373;49.342;8.146;2023-03-17T06:49:55;3.55;;;3.03;;
823;SDS011;373;49.342;8.146;2023-03-17T06:52:22;3.90;;;2.80;;
823;SDS011;373;49.342;8.146;2023-03-17T06:54:50;3.92;;;2.70;;
823;SDS011;373;49.342;8.146;2023-03-17T06:57:19;3.97;;;3.13;;
823;SDS011;373;49.342;8.146;2023-03-17T06:59:47;3.60;;;3.15;;
823;SDS011;373;49.342;8.146;2023-03-17T07:02:14;3.42;;;3.13;;
823;SDS011;373;49.342;8.146;2023-03-17T07:04:41;3.53;;;3.10;;
823;SDS011;373;49.342;8.146;2023-03-17T07:07:08;3.45;;;3.15;;
823;SDS011;373;49.342;8.146;2023-03-17T07:09:36;4.25;;;3.63;;
823;SDS011;373;49.342;8.146;2023-03-17T07:12:04;4.00;;;3.58;;
823;SDS011;373;49.342;8.146;2023-03-17T07:14:32;3.47;;;3.17;;
823;SDS011;373;49.342;8.146;2023-03-17T07:17:02;4.38;;;3.58;;
823;SDS011;373;49.342;8.146;2023-03-17T07:19:30;5.88;;;4.45;;
823;SDS011;373;49.342;8.146;2023-03-17T07:21:59;5.10;;;3.83;;
823;SDS011;373;49.342;8.146;2023-03-17T07:24:26;5.55;;;3.83;;
823;SDS011;373;49.342;8.146;2023-03-17T07:26:53;5.20;;;4.28;;
823;SDS011;373;49.342;8.146;2023-03-17T07:29:20;4.03;;;3.67;;
823;SDS011;373;49.342;8.146;2023-03-17T07:31:48;3.90;;;3.60;;
823;SDS011;373;49.342;8.146;2023-03-17T07:34:16;4.10;;;3.80;;
823;SDS011;373;49.342;8.146;2023-03-17T07:36:44;5.53;;;3.65;;
823;SDS011;373;49.342;8.146;2023-03-17T07:39:11;5.07;;;3.75;;
823;SDS011;373;49.342;8.146;2023-03-17T07:41:38;3.67;;;3.38;;
823;SDS011;373;49.342;8.146;2023-03-17T07:44:08;4.22;;;3.83;;
823;SDS011;373;49.342;8.146;2023-03-17T07:46:35;3.75;;;3.28;;
823;SDS011;373;49.342;8.146;2023-03-17T07:49:03;4.18;;;3.78;;
823;SDS011;373;49.342;8.146;2023-03-17T07:51:31;4.55;;;4.10;;
823;SDS011;373;49.342;8.146;2023-03-17T07:53:59;3.90;;;3.60;;
823;SDS011;373;49.342;8.146;2023-03-17T07:56:30;3.83;;;3.28;;
823;SDS011;373;49.342;8.146;2023-03-17T07:58:58;3.75;;;3.42;;
823;SDS011;373;49.342;8.146;2023-03-17T08:01:25;3.67;;;3.38;;
823;SDS011;373;49.342;8.146;2023-03-17T08:03:53;3.83;;;2.83;;
823;SDS011;373;49.342;8.146;2023-03-17T08:06:21;3.63;;;3.33;;
823;SDS011;373;49.342;8.146;2023-03-17T08:08:51;4.75;;;3.50;;
823;SDS011;373;49.342;8.146;2023-03-17T08:11:18;4.10;;;3.78;;
823;SDS011;373;49.342;8.146;2023-03-17T08:13:46;5.38;;;3.47;;
823;SDS011;373;49.342;8.146;2023-03-17T08:16:14;4.07;;;3.78;;
823;SDS011;373;49.342;8.146;2023-03-17T08:18:41;3.55;;;3.25;;
823;SDS011;373;49.342;8.146;2023-03-17T08:21:08;3.47;;;3.17;;
823;SDS011;373;49.342;8.146;2023-03-17T08:23:35;4.78;;;3.50;;
823;SDS011;373;49.342;8.146;2023-03-17T08:26:05;4.10;;;3.80;;
823;SDS011;373;49.342;8.146;2023-03-17T08:28:32;4.10;;;3.63;;
823;SDS011;373;49.342;8.146;2023-03-17T08:31:07;3.67;;;3.38;;
823;SDS011;373;49.342;8.146;2023-03-17T08:33:37;4.53;;;4.13;;
823;SDS011;373;49.342;8.146;2023-03-17T08:36:05;5.05;;;4.15;;
823;SDS011;373;49.342;8.146;2023-03-17T08:38:33;4.40;;;3.65;;
823;SDS011;373;49.342;8.146;2023-03-17T08:41:02;4.18;;;3.85;;
823;SDS011;373;49.342;8.146;2023-03-17T08:43:32;4.00;;;3.70;;
823;SDS011;373;49.342;8.146;2023-03-17T08:46:01;4.10;;;3.78;;
823;SDS011;373;49.342;8.146;2023-03-17T08:48:31;4.80;;;3.90;;
823;SDS011;373;49.342;8.146;2023-03-17T08:50:58;3.85;;;3.55;;
823;SDS011;373;49.342;8.146;2023-03-17T08:53:25;5.82;;;3.70;;
823;SDS011;373;49.342;8.146;2023-03-17T08:55:53;3.88;;;3.53;;
823;SDS011;373;49.342;8.146;2023-03-17T08:58:23;4.30;;;3.90;;
823;SDS011;373;49.342;8.146;2023-03-17T09:00:50;3.83;;;3.50;;
823;SDS011;373;49.342;8.146;2023-03-17T09:03:18;4.20;;;3.88;;
823;SDS011;373;49.342;8.146;2023-03-17T09:05:46;4.00;;;3.60;;
823;SDS011;373;49.342;8.146;2023-03-17T09:08:14;5.28;;;4.30;;
823;SDS011;373;49.342;8.146;2023-03-17T09:10:41;5.10;;;4.68;;
823;SDS011;373;49.342;8.146;2023-03-17T09:13:08;4.53;;;3.70;;
823;SDS011;373;49.342;8.146;2023-03-17T09:15:37;4.22;;;3.88;;
823;SDS011;373;49.342;8.146;2023-03-17T09:18:04;4.22;;;3.88;;
823;SDS011;373;49.342;8.146;2023-03-17T09:20:32;6.07;;;4.78;;
823;SDS011;373;49.342;8.146;2023-03-17T09:22:59;7.22;;;4.10;;
823;SDS011;373;49.342;8.146;2023-03-17T09:25:30;4.82;;;4.30;;
823;SDS011;373;49.342;8.146;2023-03-17T09:27:59;4.93;;;4.38;;
823;SDS011;373;49.342;8.146;2023-03-17T09:30:26;4.38;;;3.90;;
823;SDS011;373;49.342;8.146;2023-03-17T09:32:54;4.32;;;3.92;;
823;SDS011;373;49.342;8.146;2023-03-17T09:35:22;6.22;;;4.85;;
823;SDS011;373;49.342;8.146;2023-03-17T09:37:50;4.63;;;4.32;;
823;SDS011;373;49.342;8.146;2023-03-17T09:40:20;4.65;;;4.25;;
823;SDS011;373;49.342;8.146;2023-03-17T09:42:55;5.10;;;4.43;;
823;SDS011;373;49.342;8.146;2023-03-17T09:45:31;6.53;;;4.90;;
823;SDS011;373;49.342;8.146;2023-03-17T09:48:11;4.90;;;4.43;;
823;SDS011;373;49.342;8.146;2023-03-17T09:50:54;4.07;;;3.75;;
823;SDS011;373;49.342;8.146;2023-03-17T09:53:24;4.55;;;4.07;;
823;SDS011;373;49.342;8.146;2023-03-17T09:55:58;4.45;;;4.05;;
823;SDS011;373;49.342;8.146;2023-03-17T09:58:30;4.65;;;4.25;;
823;SDS011;373;49.342;8.146;2023-03-17T10:00:59;4.68;;;4.25;;
823;SDS011;373;49.342;8.146;2023-03-17T10:03:28;5.35;;;4.45;;
823;SDS011;373;49.342;8.146;2023-03-17T10:05:58;5.22;;;4.72;;
823;SDS011;373;49.342;8.146;2023-03-17T10:08:42;4.30;;;3.90;;
823;SDS011;373;49.342;8.146;2023-03-17T10:11:15;5.65;;;4.57;;
823;SDS011;373;49.342;8.146;2023-03-17T10:13:50;4.60;;;4.15;;
823;SDS011;373;49.342;8.146;2023-03-17T10:16:24;6.15;;;4.40;;
823;SDS011;373;49.342;8.146;2023-03-17T10:18:59;4.68;;;4.05;;
823;SDS011;373;49.342;8.146;2023-03-17T10:21:32;4.97;;;4.50;;
823;SDS011;373;49.342;8.146;2023-03-17T10:24:03;6.57;;;4.50;;
823;SDS011;373;49.342;8.146;2023-03-17T10:26:32;4.95;;;4.53;;
823;SDS011;373;49.342;8.146;2023-03-17T10:29:04;5.22;;;4.60;;
823;SDS011;373;49.342;8.146;2023-03-17T10:31:36;5.30;;;3.80;;
823;SDS011;373;49.342;8.146;2023-03-17T10:34:12;4.70;;;4.30;;
823;SDS011;373;49.342;8.146;2023-03-17T10:36:41;4.78;;;4.38;;
823;SDS011;373;49.342;8.146;2023-03-17T10:39:11;6.45;;;4.50;;
823;SDS011;373;49.342;8.146;2023-03-17T10:41:40;6.82;;;4.90;;
823;SDS011;373;49.342;8.146;2023-03-17T10:44:20;5.50;;;4.82;;
823;SDS011;373;49.342;8.146;2023-03-17T10:46:54;6.18;;;4.78;;
823;SDS011;373;49.342;8.146;2023-03-17T10:49:23;6.60;;;4.72;;
823;SDS011;373;49.342;8.146;2023-03-17T10:51:51;5.68;;;4.70;;
823;SDS011;373;49.342;8.146;2023-03-17T10:54:20;6.43;;;4.90;;
823;SDS011;373;49.342;8.146;2023-03-17T10:56:54;4.63;;;4.07;;
823;SDS011;373;49.342;8.146;2023-03-17T10:59:27;6.13;;;4.70;;
823;SDS011;373;49.342;8.146;2023-03-17T11:01:56;5.70;;;4.97;;
823;SDS011;373;49.342;8.146;2023-03-17T11:04:28;5.85;;;5.07;;
823;SDS011;373;49.342;8.146;2023-03-17T11:06:58;5.03;;;4.63;;
823;SDS011;373;49.342;8.146;2023-03-17T11:09:33;7.57;;;5.00;;
823;SDS011;373;49.342;8.146;2023-03-17T11:12:02;4.72;;;4.32;;
823;SDS011;373;49.342;8.146;2023-03-17T11:14:31;5.50;;;5.00;;
823;SDS011;373;49.342;8.146;2023-03-17T11:17:00;7.13;;;4.95;;
823;SDS011;373;49.342;8.146;2023-03-17T11:19:34;4.72;;;4.32;;
823;SDS011;373;49.342;8.146;2023-03-17T11:22:08;5.65;;;4.53;;
823;SDS011;373;49.342;8.146;2023-03-17T11:24:41;5.80;;;5.25;;
823;SDS011;373;49.342;8.146;2023-03-17T11:27:23;6.55;;;4.80;;
823;SDS011;373;49.342;8.146;2023-03-17T11:30:00;5.10;;;4.63;;
823;SDS011;373;49.342;8.146;2023-03-17T11:32:40;4.40;;;4.00;;
823;SDS011;373;49.342;8.146;2023-03-17T11:38:18;7.35;;;5.43;;
823;SDS011;373;49.342;8.146;2023-03-17T11:43:55;5.35;;;4.85;;
823;SDS011;373;49.342;8.146;2023-03-17T11:46:33;4.88;;;4.47;;
823;SDS011;373;49.342;8.146;2023-03-17T11:49:07;4.97;;;4.28;;
823;SDS011;373;49.342;8.146;2023-03-17T11:51:45;6.93;;;5.32;;
823;SDS011;373;49.342;8.146;2023-03-17T11:54:18;6.22;;;4.97;;
823;SDS011;373;49.342;8.146;2023-03-17T11:56:52;6.53;;;5.20;;
823;SDS011;373;49.342;8.146;2023-03-17T11:59:25;5.70;;;5.10;;
823;SDS011;373;49.342;8.146;2023-03-17T12:01:57;5.22;;;4.53;;
823;SDS011;373;49.342;8.146;2023-03-17T12:04:31;15.93;;;14.23;;
823;SDS011;373;49.342;8.146;2023-03-17T12:07:06;5.93;;;5.32;;
823;SDS011;373;49.342;8.146;2023-03-17T12:09:43;5.63;;;5.13;;
823;SDS011;373;49.342;8.146;2023-03-17T12:12:16;5.63;;;5.13;;
823;SDS011;373;49.342;8.146;2023-03-17T12:14:51;5.65;;;5.15;;
823;SDS011;373;49.342;8.146;2023-03-17T12:17:22;6.20;;;5.22;;
823;SDS011;373;49.342;8.146;2023-03-17T12:19:57;10.23;;;9.23;;
823;SDS011;373;49.342;8.146;2023-03-17T12:22:33;7.20;;;6.43;;
823;SDS011;373;49.342;8.146;2023-03-17T12:25:08;7.75;;;6.78;;
823;SDS011;373;49.342;8.146;2023-03-17T12:27:43;6.05;;;5.05;;
823;SDS011;373;49.342;8.146;2023-03-17T12:30:20;7.63;;;6.88;;
823;SDS011;373;49.342;8.146;2023-03-17T12:32:54;9.27;;;8.25;;
823;SDS011;373;49.342;8.146;2023-03-17T12:35:26;10.55;;;9.20;;
823;SDS011;373;49.342;8.146;2023-03-17T12:37:59;9.77;;;7.43;;
823;SDS011;373;49.342;8.146;2023-03-17T12:40:29;7.20;;;5.88;;
823;SDS011;373;49.342;8.146;2023-03-17T12:43:07;10.07;;;7.50;;
823;SDS011;373;49.342;8.146;2023-03-17T12:45:51;8.52;;;7.03;;
823;SDS011;373;49.342;8.146;2023-03-17T12:48:39;6.47;;;5.70;;
823;SDS011;373;49.342;8.146;2023-03-17T12:51:30;6.13;;;5.18;;
823;SDS011;373;49.342;8.146;2023-03-17T12:54:11;6.00;;;5.10;;
823;SDS011;373;49.342;8.146;2023-03-17T12:56:44;8.20;;;5.78;;
823;SDS011;373;49.342;8.146;2023-03-17T12:59:14;5.95;;;4.85;;
823;SDS011;373;49.342;8.146;2023-03-17T13:01:44;5.22;;;4.45;;
823;SDS011;373;49.342;8.146;2023-03-17T13:04:20;4.95;;;4.40;;
823;SDS011;373;49.342;8.146;2023-03-17T13:06:52;6.07;;;3.80;;
823;SDS011;373;49.342;8.146;2023-03-17T13:15:48;4.53;;;4.00;;
823;SDS011;373;49.342;8.146;2023-03-17T13:21:16;4.32;;;3.92;;
823;SDS011;373;49.342;8.146;2023-03-17T13:23:52;6.05;;;3.88;;
823;SDS011;373;49.342;8.146;2023-03-17T13:26:48;4.07;;;3.67;;
823;SDS011;373;49.342;8.146;2023-03-17T13:29:24;3.90;;;3.53;;
823;SDS011;373;49.342;8.146;2023-03-17T13:38:00;3.53;;;3.22;;
823;SDS011;373;49.342;8.146;2023-03-17T13:40:52;4.63;;;3.25;;
823;SDS011;373;49.342;8.146;2023-03-17T13:43:37;4.28;;;3.72;;
823;SDS011;373;49.342;8.146;2023-03-17T13:46:18;4.00;;;3.60;;
823;SDS011;373;49.342;8.146;2023-03-17T13:48:48;7.90;;;3.88;;
823;SDS011;373;49.342;8.146;2023-03-17T13:51:18;4.25;;;3.85;;
823;SDS011;373;49.342;8.146;2023-03-17T13:53:49;4.18;;;3.80;;
823;SDS011;373;49.342;8.146;2023-03-17T13:56:24;5.72;;;4.47;;
823;SDS011;373;49.342;8.146;2023-03-17T13:58:57;6.45;;;3.95;;
823;SDS011;373;49.342;8.146;2023-03-17T14:01:34;4.90;;;4.40;;
823;SDS011;373;49.342;8.146;2023-03-17T14:04:08;4.38;;;3.97;;
823;SDS011;373;49.342;8.146;2023-03-17T14:06:42;4.95;;;4.05;;
823;SDS011;373;49.342;8.146;2023-03-17T14:09:17;5.32;;;4.32;;
823;SDS011;373;49.342;8.146;2023-03-17T14:11:59;6.72;;;3.92;;
823;SDS011;373;49.342;8.146;2023-03-17T14:14:34;5.28;;;4.10;;
823;SDS011;373;49.342;8.146;2023-03-17T14:17:09;4.88;;;3.97;;
823;SDS011;373;49.342;8.146;2023-03-17T14:19:39;5.10;;;4.20;;
823;SDS011;373;49.342;8.146;2023-03-17T14:22:20;4.63;;;3.78;;
823;SDS011;373;49.342;8.146;2023-03-17T14:24:52;5.90;;;4.20;;
823;SDS011;373;49.342;8.146;2023-03-17T14:27:21;4.65;;;4.22;;
823;SDS011;373;49.342;8.146;2023-03-17T14:29:51;4.22;;;3.88;;
823;SDS011;373;49.342;8.146;2023-03-17T14:32:19;4.43;;;3.85;;
823;SDS011;373;49.342;8.146;2023-03-17T14:34:47;5.95;;;4.53;;
823;SDS011;373;49.342;8.146;2023-03-17T14:37:20;6.22;;;4.10;;
823;SDS011;373;49.342;8.146;2023-03-17T14:39:49;4.95;;;3.97;;
823;SDS011;373;49.342;8.146;2023-03-17T14:42:18;4.03;;;3.63;;
823;SDS011;373;49.342;8.146;2023-03-17T14:44:58;5.05;;;4.43;;
823;SDS011;373;49.342;8.146;2023-03-17T14:47:25;6.40;;;4.10;;
823;SDS011;373;49.342;8.146;2023-03-17T14:49:53;5.00;;;4.50;;
823;SDS011;373;49.342;8.146;2023-03-17T14:52:22;4.75;;;4.28;;
823;SDS011;373;49.342;8.146;2023-03-17T14:54:52;5.05;;;4.38;;
823;SDS011;373;49.342;8.146;2023-03-17T14:57:21;4.88;;;4.28;;
823;SDS011;373;49.342;8.146;2023-03-17T14:59:58;4.72;;;4.28;;
823;SDS011;373;49.342;8.146;2023-03-17T15:02:30;5.78;;;4.13;;
823;SDS011;373;49.342;8.146;2023-03-17T15:05:04;5.40;;;4.50;;
823;SDS011;373;49.342;8.146;2023-03-17T15:07:40;4.60;;;4.20;;
823;SDS011;373;49.342;8.146;2023-03-17T15:10:12;8.25;;;4.38;;
823;SDS011;373;49.342;8.146;2023-03-17T15:12:41;4.43;;;4.03;;
823;SDS011;373;49.342;8.146;2023-03-17T15:15:16;5.07;;;4.50;;
823;SDS011;373;49.342;8.146;2023-03-17T15:17:49;5.35;;;4.22;;
823;SDS011;373;49.342;8.146;2023-03-17T15:20:17;4.90;;;4.40;;
823;SDS011;373;49.342;8.146;2023-03-17T15:22:46;4.22;;;3.83;;
823;SDS011;373;49.342;8.146;2023-03-17T15:25:22;4.55;;;4.15;;
823;SDS011;373;49.342;8.146;2023-03-17T15:27:51;4.45;;;4.03;;
823;SDS011;373;49.342;8.146;2023-03-17T15:30:20;3.83;;;3.50;;
823;SDS011;373;49.342;8.146;2023-03-17T15:32:49;4.88;;;4.38;;
823;SDS011;373;49.342;8.146;2023-03-17T15:35:17;4.88;;;4.35;;
823;SDS011;373;49.342;8.146;2023-03-17T15:37:44;4.78;;;4.28;;
823;SDS011;373;49.342;8.146;2023-03-17T15:40:12;4.72;;;4.32;;
823;SDS011;373;49.342;8.146;2023-03-17T15:42:41;5.63;;;4.43;;
823;SDS011;373;49.342;8.146;2023-03-17T15:45:12;7.03;;;4.40;;
823;SDS011;373;49.342;8.146;2023-03-17T15:47:42;5.85;;;4.82;;
823;SDS011;373;49.342;8.146;2023-03-17T15:50:15;6.10;;;4.85;;
823;SDS011;373;49.342;8.146;2023-03-17T15:52:52;6.45;;;5.65;;
823;SDS011;373;49.342;8.146;2023-03-17T15:55:22;6.53;;;5.90;;
823;SDS011;373;49.342;8.146;2023-03-17T15:57:50;6.10;;;5.20;;
823;SDS011;373;49.342;8.146;2023-03-17T16:00:18;7.55;;;5.70;;
823;SDS011;373;49.342;8.146;2023-03-17T16:02:49;7.30;;;5.25;;
823;SDS011;373;49.342;8.146;2023-03-17T16:05:20;5.72;;;4.82;;
823;SDS011;373;49.342;8.146;2023-03-17T16:07:49;6.07;;;5.47;;
823;SDS011;373;49.342;8.146;2023-03-17T16:10:17;7.35;;;4.93;;
823;SDS011;373;49.342;8.146;2023-03-17T16:12:46;5.78;;;4.85;;
823;SDS011;373;49.342;8.146;2023-03-17T16:15:14;5.97;;;4.80;;
823;SDS011;373;49.342;8.146;2023-03-17T16:17:42;6.65;;;5.70;;
823;SDS011;373;49.342;8.146;2023-03-17T16:20:19;8.48;;;5.82;;
823;SDS011;373;49.342;8.146;2023-03-17T16:22:48;6.43;;;5.82;;
823;SDS011;373;49.342;8.146;2023-03-17T16:25:17;6.43;;;5.50;;
823;SDS011;373;49.342;8.146;2023-03-17T16:27:47;6.32;;;5.53;;
823;SDS011;373;49.342;8.146;2023-03-17T16:30:15;7.90;;;5.38;;
823;SDS011;373;49.342;8.146;2023-03-17T16:32:43;7.15;;;4.60;;